»·PEaware :: N172RB KBFL-KMHV

N172RB :: KBFL-KMHV

FLIGHT INFORMATION

Flight Status: Arrived
Operator: Privately registered:
United States
More flights under this callsign
Pilot: Newton D. (19172)
Aircraft: CESSNA 172 SKYHAWK
(C172)
More flights by this aircraft type
Origin: KBFL Meadows
United States
Destination: KMHV Mojave
United States
More flights between these airports :: More routes between these airports
Route: DCT
File this flight plan on PilotEdge
Remarks:
Altitude:
(Current/Filed)
7,500ft
Speed:
(Current/Filed)
110kts
Departed: 16-May-18 11:11 AM
Arrived: 16-May-18 11:51 AM
Distance/Time
Traveled:
49nm/0:40
Distance/Time
To Go:
Arrived

Flight Plot

Page will automatically refresh every two minutes.


Map Options




Map Legend


Flown Route
Filed Route
Departure Airport
Arrival Airport
Navaid (VOR, NDB)
Fix

Horizontal Profiles

Position Reports

Time Latitude Longitude Heading Altitude Ground
Speed
16-May-18 10:50 35.429366 -119.046106 225 495ft 0kts
16-May-18 10:51 35.429366 -119.046106 225 495ft 0kts
16-May-18 10:52 35.429366 -119.046106 225 495ft 0kts
16-May-18 10:53 35.429366 -119.046106 225 495ft 0kts
16-May-18 10:54 35.429366 -119.046106 225 495ft 0kts
16-May-18 10:55 35.429366 -119.046106 225 495ft 0kts
16-May-18 10:56 35.429366 -119.046106 225 495ft 0kts
16-May-18 10:57 35.429366 -119.046106 225 495ft 0kts
16-May-18 10:58 35.429366 -119.046106 225 495ft 0kts
16-May-18 10:59 35.429366 -119.046106 225 495ft 0kts
16-May-18 11:00 35.429366 -119.046106 225 495ft 0kts
16-May-18 11:01 35.429366 -119.046106 225 495ft 0kts
16-May-18 11:02 35.429366 -119.046106 225 495ft 0kts
16-May-18 11:03 35.429331 -119.046345 276 494ft 6kts
16-May-18 11:04 35.428607 -119.046346 138 491ft 13kts
16-May-18 11:05 35.425806 -119.043329 177 483ft 10kts
16-May-18 11:06 35.423980 -119.043042 98 476ft 2kts
16-May-18 11:07 35.422943 -119.040166 182 475ft 17kts
16-May-18 11:08 35.421189 -119.040123 199 471ft 0kts
16-May-18 11:09 35.421189 -119.040123 199 471ft 0kts
16-May-18 11:10 35.421189 -119.040123 199 471ft 0kts
16-May-18 11:11 35.424696 -119.044985 316 475ft 79kts
16-May-18 11:12 35.443287 -119.067174 320 1139ft 92kts
16-May-18 11:13 35.462993 -119.079492 49 1922ft 90kts
16-May-18 11:14 35.450007 -119.057294 142 2503ft 85kts
16-May-18 11:15 35.432074 -119.038554 143 2888ft 84kts
16-May-18 11:16 35.418799 -119.015357 118 3279ft 80kts
16-May-18 11:17 35.408819 -118.992989 113 3732ft 72kts
16-May-18 11:18 35.398532 -118.971191 118 4072ft 77kts
16-May-18 11:19 35.387658 -118.947714 120 4648ft 85kts
16-May-18 11:20 35.375829 -118.922416 119 5268ft 89kts
16-May-18 11:21 35.364759 -118.895816 117 5911ft 88kts
16-May-18 11:22 35.353346 -118.869571 115 6521ft 87kts
16-May-18 11:23 35.343147 -118.842119 114 7089ft 87kts
16-May-18 11:24 35.330755 -118.815023 119 7359ft 104kts
16-May-18 11:25 35.318731 -118.783688 113 7376ft 105kts
16-May-18 11:26 35.305332 -118.751227 117 7360ft 108kts
16-May-18 11:27 35.294810 -118.717334 111 7406ft 102kts
16-May-18 11:28 35.282745 -118.687111 112 7490ft 101kts
16-May-18 11:29 35.269972 -118.655765 116 7436ft 108kts
16-May-18 11:30 35.255195 -118.624172 121 7452ft 107kts
16-May-18 11:31 35.238855 -118.593627 123 7458ft 107kts
16-May-18 11:32 35.221006 -118.563811 124 7439ft 107kts
16-May-18 11:33 35.204083 -118.533780 122 7452ft 107kts
16-May-18 11:34 35.187877 -118.502956 121 7466ft 106kts
16-May-18 11:35 35.171895 -118.472876 121 7508ft 105kts
16-May-18 11:36 35.156010 -118.442403 119 7510ft 107kts
16-May-18 11:37 35.140200 -118.411591 121 7514ft 107kts
16-May-18 11:38 35.124189 -118.381145 124 7519ft 108kts
16-May-18 11:39 35.106509 -118.351721 123 7509ft 107kts
16-May-18 11:40 35.089969 -118.322628 116 7330ft 107kts
16-May-18 11:41 35.080964 -118.289556 107 6672ft 95kts
16-May-18 11:42 35.073252 -118.258923 103 5821ft 95kts
16-May-18 11:43 35.067766 -118.227719 98 4999ft 98kts
16-May-18 11:44 35.065411 -118.193541 91 4056ft 100kts
16-May-18 11:45 35.065147 -118.159667 90 3685ft 97kts
16-May-18 11:46 35.065263 -118.128005 88 3662ft 95kts
16-May-18 11:47 35.063826 -118.096920 93 3672ft 85kts
16-May-18 11:48 35.050053 -118.086359 247 3278ft 83kts
16-May-18 11:49 35.059185 -118.109496 288 3228ft 76kts
16-May-18 11:50 35.059120 -118.136677 273 2940ft 72kts
16-May-18 11:51 35.059250 -118.156109 263 2764ft 36kts
16-May-18 11:52 35.058378 -118.157671 185 2765ft 1kts
16-May-18 11:53 35.056978 -118.158410 247 2764ft 0kts

Navigation Log

Ident Type
1. KBFL Airport
2. KMHV Airport